createdAt,value
2023-05-08T16:05:26.948Z,44.43
2023-05-08T16:05:38.033Z,44.42
2023-05-08T16:05:48.147Z,44.34
2023-05-08T16:05:58.273Z,44.32
2023-05-08T16:06:08.399Z,44.32
2023-05-08T16:06:18.523Z,44.42
2023-05-08T16:06:28.645Z,44.51
2023-05-08T16:06:38.769Z,44.51
2023-05-08T16:06:48.898Z,44.42
2023-05-08T16:06:59.032Z,44.32
2023-05-08T16:07:09.158Z,44.42
2023-05-08T16:07:19.310Z,44.62
2023-05-08T16:07:29.419Z,44.51
2023-05-08T16:07:39.532Z,44.42
2023-05-08T16:07:49.655Z,44.42
2023-05-08T16:07:59.792Z,44.12
2023-05-08T16:08:09.907Z,44.12
2023-05-08T16:08:20.034Z,44.21
2023-05-08T16:08:30.164Z,44.21
2023-05-08T16:08:40.296Z,44.21
2023-05-08T16:08:50.407Z,44.12
2023-05-08T16:09:00.536Z,44.21
2023-05-08T16:09:10.669Z,44.21
2023-05-08T16:09:20.789Z,44.21
2023-05-08T16:09:31.092Z,44.21
2023-05-08T16:10:43.486Z,44.01
2023-05-08T16:10:54.588Z,44.21
2023-05-08T16:11:04.673Z,44.21
2023-05-08T16:11:14.728Z,44.21
2023-05-08T16:11:24.877Z,44.21
2023-05-08T16:11:34.942Z,44.21
2023-05-08T16:11:45.009Z,44.21
2023-05-08T16:11:55.075Z,44.21
2023-05-08T16:12:05.139Z,44.21
2023-05-08T16:12:15.196Z,44.21
2023-05-08T16:12:25.263Z,44.32
2023-05-08T16:12:35.325Z,44.32
2023-05-08T16:12:45.423Z,44.32
2023-05-08T16:12:55.585Z,44.42
2023-05-08T16:13:05.675Z,44.32
2023-05-08T16:13:15.656Z,44.32
2023-05-08T16:13:25.761Z,44.32
2023-05-08T16:13:35.843Z,44.42
2023-05-08T16:13:45.929Z,44.51
2023-05-08T16:13:55.995Z,44.42
2023-05-08T16:14:06.063Z,44.32
2023-05-08T16:14:16.129Z,44.32
2023-05-08T16:14:26.197Z,44.42
2023-05-08T16:14:36.273Z,44.43
2023-05-08T16:14:46.336Z,44.43
2023-05-08T16:14:56.407Z,44.34
2023-05-08T16:15:06.472Z,44.43
2023-05-08T16:15:16.537Z,44.42
2023-05-08T16:15:26.616Z,44.42
2023-05-08T16:15:36.674Z,44.32
2023-05-08T16:15:46.795Z,44.21
2023-05-08T16:15:56.902Z,44.21
2023-05-08T16:16:07.022Z,44.32
2023-05-08T16:16:17.169Z,44.32
2023-05-08T16:16:27.203Z,44.21
2023-05-08T16:16:37.296Z,44.42
2023-05-08T16:16:47.381Z,44.42
2023-05-08T16:16:57.453Z,44.32
2023-05-08T16:17:07.506Z,44.32
2023-05-08T16:17:17.577Z,44.32
2023-05-08T16:17:27.679Z,44.21
2023-05-08T16:17:37.761Z,44.21
2023-05-08T16:17:47.867Z,44.24
2023-05-08T16:17:57.948Z,44.34
2023-05-08T16:18:08.151Z,44.34
2023-05-08T16:18:18.071Z,44.34
2023-05-08T16:18:28.140Z,44.34
2023-05-08T16:18:38.199Z,44.34
2023-05-08T16:18:48.285Z,44.34
2023-05-08T16:18:58.344Z,44.34
2023-05-08T16:19:08.408Z,44.34
2023-05-08T16:19:18.469Z,44.34
2023-05-08T16:19:28.818Z,44.34
2023-05-08T16:19:38.628Z,44.54
2023-05-08T16:19:48.704Z,44.54
2023-05-08T16:19:58.756Z,44.54
2023-05-08T16:20:08.822Z,44.54
2023-05-08T16:20:18.882Z,44.64
2023-05-08T16:20:28.952Z,44.74
2023-05-08T16:20:39.020Z,44.74
2023-05-08T16:20:49.092Z,44.74
2023-05-08T16:20:59.146Z,44.74
2023-05-08T16:21:09.217Z,44.74
2023-05-08T16:21:19.275Z,44.74
2023-05-08T16:21:29.341Z,44.84
2023-05-08T16:21:39.404Z,44.84
2023-05-08T16:21:49.464Z,44.84
2023-05-08T16:21:59.529Z,44.84
2023-05-08T16:22:09.614Z,44.84
2023-05-08T16:22:19.673Z,44.84
2023-05-08T16:22:29.743Z,44.84
2023-05-08T16:22:39.787Z,44.84
2023-05-08T16:22:49.856Z,44.84
2023-05-08T16:22:59.979Z,44.93
2023-05-08T16:23:10.055Z,44.93
2023-05-08T16:23:20.118Z,44.93
2023-05-08T16:23:30.195Z,44.84
2023-05-08T16:23:40.282Z,44.93
2023-05-08T16:23:50.345Z,44.93
2023-05-08T16:24:00.417Z,44.93
2023-05-08T16:24:10.473Z,44.93
2023-05-08T16:24:20.543Z,44.93
2023-05-08T16:24:30.605Z,44.93
2023-05-08T16:24:40.675Z,44.84
2023-05-08T16:24:50.731Z,44.84
2023-05-08T16:25:00.803Z,44.84
2023-05-08T16:25:11.050Z,44.84
2023-05-08T16:25:20.927Z,44.84
2023-05-08T16:25:31.013Z,44.93
2023-05-08T16:25:41.078Z,44.84
2023-05-08T16:25:51.174Z,44.93
2023-05-08T16:26:01.246Z,44.93
2023-05-08T16:26:11.314Z,44.93
2023-05-08T16:26:21.373Z,45.04
2023-05-08T16:26:31.453Z,45.04
2023-05-08T16:26:41.552Z,46.44
2023-05-08T16:26:51.608Z,81.72
2023-05-08T16:27:01.670Z,69.02
2023-05-08T16:27:11.734Z,56.48
2023-05-08T16:27:21.790Z,47.24
2023-05-08T16:27:31.856Z,43.15
2023-05-08T16:27:41.924Z,42.47
2023-05-08T16:27:52.004Z,41.97
2023-05-08T16:28:02.071Z,41.99
2023-05-08T16:28:12.134Z,41.69
2023-05-08T16:28:22.210Z,41.91
2023-05-08T16:28:32.259Z,42.11
2023-05-08T16:28:42.325Z,42.03
2023-05-08T16:28:52.386Z,42.24
2023-05-08T16:29:02.451Z,42.54
2023-05-08T16:29:12.515Z,42.65
2023-05-08T16:29:22.573Z,42.65
2023-05-08T16:29:32.631Z,42.76
2023-05-08T16:29:42.702Z,42.85
2023-05-08T16:29:52.769Z,42.95
2023-05-08T16:30:02.827Z,43.07
2023-05-08T16:30:12.902Z,43.18
2023-05-08T16:30:22.977Z,43.18
2023-05-08T16:30:33.040Z,43.18
2023-05-08T16:30:43.102Z,43.18
2023-05-08T16:30:53.206Z,43.27
2023-05-08T16:31:03.310Z,43.27
2023-05-08T16:31:13.440Z,43.29
2023-05-08T16:31:23.526Z,43.40
2023-05-08T16:31:33.630Z,43.49
2023-05-08T16:31:43.627Z,43.49
2023-05-08T16:31:53.740Z,43.49
2023-05-08T16:32:03.808Z,43.49
2023-05-08T16:32:13.880Z,43.59
2023-05-08T16:32:23.959Z,43.70
2023-05-08T16:32:34.032Z,43.70
2023-05-08T16:32:44.094Z,43.79
2023-05-08T16:32:54.198Z,43.79
2023-05-08T16:33:04.278Z,43.79
2023-05-08T16:33:14.351Z,43.79
2023-05-08T16:33:24.402Z,44.09
2023-05-08T16:33:34.473Z,44.20
2023-05-08T16:33:44.522Z,44.29
2023-05-08T16:33:54.591Z,44.09
2023-05-08T16:34:04.697Z,43.90
2023-05-08T16:34:14.744Z,43.90
2023-05-08T16:34:24.872Z,43.99
2023-05-08T16:34:34.932Z,43.99
2023-05-08T16:34:45.009Z,43.91
2023-05-08T16:34:55.072Z,44.01
2023-05-08T16:35:05.215Z,44.01
2023-05-08T16:35:15.582Z,44.01
2023-05-08T16:35:25.343Z,44.01
2023-05-08T16:35:35.378Z,43.91
2023-05-08T16:35:45.458Z,43.90
2023-05-08T16:35:55.665Z,43.90
2023-05-08T16:36:05.634Z,43.90
2023-05-08T16:36:15.693Z,44.09
